weather.gov     
National Weather Service

Terminal Aerodrome Forecast
NWS Homepage
This page is being discontinued on March 12, 2014.
The same data is available at this site. Please update your bookmarks.
Thank you, and we apologize for the inconvenience.
Please send an email to SR-SRH.Webmaster@noaa.gov with any concerns.


Current Version
Previous Version:    01  02  03  04  05  06  07  08  09  10  11  12  13  14  15  16  17  18  19  20  21  22  23  24  25  26  27  28  29  30  
   31  32  33  34  35  36  37  38  39  40  41  42  43  44  45  46  47  48  49  
[Printable]
883
FTUS43 KGRB 242100 AAA
TAFCWA
TAF AMD
KCWA 242155Z 2422/2518 31014G21KT 1/4SM SN FZFG OVC006
     FM250000 31012G20KT 3/4SM -SN BR OVC009
     FM250200 31011KT 3SM -SN OVC008
     FM250600 30008KT 6SM -SN OVC014
     FM251000 30007KT P6SM OVC018
     FM251500 28007KT P6SM BKN020 BKN100=


U.S. Dept. of Commerce
NOAA National Weather Service
1325 East West Highway
Silver Spring, MD 20910
E-mail: w-nws.webmaster@noaa.gov
Page last modified: May 16, 2007
NATIONAL WEATHER SERVICE: for Safety, for Work, for Fun - FOR LIFE